createdAt,value
2022-11-08T00:00:19.212Z,19.80
2022-11-08T00:02:47.259Z,19.70
2022-11-08T00:05:34.336Z,19.70
2022-11-08T00:08:22.304Z,19.70
2022-11-08T00:11:07.821Z,19.70
2022-11-08T00:13:53.304Z,19.70
2022-11-08T00:16:21.195Z,19.70
2022-11-08T00:18:49.416Z,19.70
2022-11-08T00:21:18.675Z,19.60
2022-11-08T00:23:46.599Z,19.60
2022-11-08T00:26:14.500Z,19.60
2022-11-08T00:28:42.434Z,19.60
2022-11-08T00:31:10.309Z,19.60
2022-11-08T00:33:38.429Z,19.60
2022-11-08T00:36:07.089Z,19.50
2022-11-08T00:38:36.333Z,19.50
2022-11-08T00:41:04.228Z,19.50
2022-11-08T00:43:32.500Z,19.50
2022-11-08T00:46:00.390Z,19.50
2022-11-08T00:48:28.246Z,19.40
2022-11-08T00:50:56.128Z,19.40
2022-11-08T00:53:23.981Z,19.40
2022-11-08T00:56:01.244Z,19.40
2022-11-08T00:58:29.801Z,19.40
2022-11-08T01:00:58.491Z,19.30
2022-11-08T01:03:27.135Z,19.30
2022-11-08T01:05:55.844Z,19.30
2022-11-08T01:08:24.781Z,19.30
2022-11-08T01:10:53.254Z,19.30
2022-11-08T01:13:22.692Z,19.30
2022-11-08T01:15:50.699Z,19.30
2022-11-08T01:18:19.500Z,19.30
2022-11-08T01:20:49.820Z,19.30
2022-11-08T01:23:18.898Z,19.30
2022-11-08T01:25:48.950Z,19.30
2022-11-08T01:28:17.466Z,19.30
2022-11-08T01:30:47.276Z,19.30
2022-11-08T01:33:16.341Z,19.30
2022-11-08T01:35:46.465Z,19.30
2022-11-08T01:38:14.952Z,19.30
2022-11-08T01:40:45.253Z,19.20
2022-11-08T01:43:39.595Z,19.20
2022-11-08T01:46:37.845Z,19.20
2022-11-08T01:49:32.481Z,19.30
2022-11-08T01:52:23.629Z,19.20
2022-11-08T01:55:11.079Z,19.20
2022-11-08T01:57:44.496Z,19.20
2022-11-08T02:00:13.748Z,19.30
2022-11-08T02:02:45.391Z,19.20
2022-11-08T02:05:25.684Z,19.20
2022-11-08T02:07:57.298Z,19.20
2022-11-08T02:10:29.417Z,19.20
2022-11-08T02:12:58.025Z,19.20
2022-11-08T02:15:27.636Z,19.20
2022-11-08T02:17:56.972Z,19.10
2022-11-08T02:20:25.028Z,19.20
2022-11-08T02:22:57.676Z,19.10
2022-11-08T02:25:27.531Z,19.20
2022-11-08T02:27:55.449Z,19.20
2022-11-08T02:30:23.453Z,19.20
2022-11-08T02:32:51.339Z,19.10
2022-11-08T02:35:21.677Z,19.10
2022-11-08T02:37:49.583Z,19.10
2022-11-08T02:40:17.639Z,19.10
2022-11-08T02:42:46.883Z,19.10
2022-11-08T02:45:14.773Z,19.10
2022-11-08T02:47:42.656Z,19.10
2022-11-08T02:50:11.338Z,19.10
2022-11-08T02:52:39.208Z,19.10
2022-11-08T02:55:07.762Z,19.10
2022-11-08T02:57:35.720Z,19.10
2022-11-08T03:00:05.502Z,19.10
2022-11-08T03:02:33.428Z,19.10
2022-11-08T03:05:01.343Z,19.00
2022-11-08T03:07:29.215Z,19.00
2022-11-08T03:09:57.083Z,19.10
2022-11-08T03:12:25.292Z,19.10
2022-11-08T03:14:53.241Z,19.00
2022-11-08T03:17:22.474Z,19.00
2022-11-08T03:19:50.388Z,19.00
2022-11-08T03:22:18.319Z,19.00
2022-11-08T03:24:46.302Z,19.00
2022-11-08T03:27:15.199Z,19.00
2022-11-08T03:29:43.119Z,19.00
2022-11-08T03:32:11.018Z,19.00
2022-11-08T03:34:40.387Z,19.00
2022-11-08T03:37:10.980Z,19.00
2022-11-08T03:39:38.883Z,19.00
2022-11-08T03:42:07.963Z,19.00
2022-11-08T03:44:35.948Z,19.00
2022-11-08T03:47:03.853Z,19.00
2022-11-08T03:49:31.752Z,19.00
2022-11-08T03:52:00.980Z,19.00
2022-11-08T03:54:28.917Z,19.00
2022-11-08T03:56:56.868Z,19.00
2022-11-08T03:59:24.727Z,19.00
2022-11-08T04:01:52.787Z,19.00
2022-11-08T04:04:20.849Z,19.00
2022-11-08T04:06:48.830Z,19.00
2022-11-08T04:09:21.467Z,19.00
2022-11-08T04:12:06.966Z,19.00
2022-11-08T04:14:52.317Z,19.00
2022-11-08T04:17:40.037Z,19.00
2022-11-08T04:20:27.141Z,19.00
2022-11-08T04:22:55.019Z,19.00
2022-11-08T04:25:24.343Z,19.00
2022-11-08T04:27:52.243Z,18.90
2022-11-08T04:30:20.162Z,19.00
2022-11-08T04:32:48.027Z,19.00
2022-11-08T04:35:15.980Z,19.00
2022-11-08T04:37:43.881Z,19.00
2022-11-08T04:40:13.080Z,19.00
2022-11-08T04:42:46.099Z,19.00
2022-11-08T04:45:14.049Z,19.00
2022-11-08T04:47:47.236Z,19.00
2022-11-08T04:50:16.992Z,19.00
2022-11-08T04:52:51.832Z,18.90
2022-11-08T04:55:19.895Z,18.90
2022-11-08T04:57:49.691Z,18.90
2022-11-08T05:00:18.442Z,18.90
2022-11-08T05:02:46.480Z,18.90
2022-11-08T05:05:14.456Z,18.90
2022-11-08T05:07:42.314Z,18.90
2022-11-08T05:10:10.534Z,18.90
2022-11-08T05:12:38.427Z,18.90
2022-11-08T05:15:09.347Z,18.90
2022-11-08T05:17:37.243Z,18.90
2022-11-08T05:20:23.643Z,18.90
2022-11-08T05:23:09.296Z,18.90
2022-11-08T05:25:40.763Z,18.90
2022-11-08T05:28:08.611Z,18.90
2022-11-08T05:30:37.856Z,18.90
2022-11-08T05:33:05.709Z,18.90
2022-11-08T05:35:34.617Z,18.90
2022-11-08T05:38:02.556Z,18.90
2022-11-08T05:40:33.380Z,18.90
2022-11-08T05:43:01.779Z,18.90
2022-11-08T05:45:29.747Z,18.90
2022-11-08T05:48:03.613Z,18.80
2022-11-08T05:50:32.812Z,18.80
2022-11-08T05:53:01.098Z,18.80
2022-11-08T05:55:29.702Z,18.80
2022-11-08T05:57:57.623Z,18.80
2022-11-08T06:00:25.590Z,18.80
2022-11-08T06:02:53.480Z,18.80
2022-11-08T06:05:23.084Z,18.80
2022-11-08T06:07:50.957Z,18.80
2022-11-08T06:10:18.934Z,18.80
2022-11-08T06:12:46.796Z,18.80
2022-11-08T06:15:14.704Z,18.80
2022-11-08T06:17:42.759Z,18.70
2022-11-08T06:20:13.924Z,18.80
2022-11-08T06:22:44.348Z,18.80
2022-11-08T06:25:12.305Z,18.80
2022-11-08T06:27:40.175Z,18.70
2022-11-08T06:30:09.721Z,18.80
2022-11-08T06:32:37.700Z,18.80
2022-11-08T06:35:06.299Z,18.70
2022-11-08T06:37:34.178Z,18.80
2022-11-08T06:40:03.438Z,18.80
2022-11-08T06:42:31.324Z,18.70
2022-11-08T06:44:59.218Z,18.70
2022-11-08T06:47:27.081Z,18.70
2022-11-08T06:49:54.970Z,18.70
2022-11-08T06:52:22.836Z,18.70
2022-11-08T06:54:50.830Z,18.70
2022-11-08T06:57:20.088Z,18.70
2022-11-08T06:59:47.980Z,18.70
2022-11-08T07:02:16.025Z,18.70
2022-11-08T07:04:44.007Z,18.70
2022-11-08T07:07:11.872Z,18.70
2022-11-08T07:09:39.984Z,18.70
2022-11-08T07:12:07.952Z,18.70
2022-11-08T07:14:37.689Z,18.70
2022-11-08T07:17:05.617Z,18.70
2022-11-08T07:19:33.471Z,18.70
2022-11-08T07:22:01.378Z,18.70
2022-11-08T07:24:29.312Z,18.70
2022-11-08T07:26:57.522Z,18.70
2022-11-08T07:29:25.412Z,18.70
2022-11-08T07:31:54.674Z,18.80
2022-11-08T07:34:23.854Z,18.80
2022-11-08T07:36:51.742Z,18.80
2022-11-08T07:39:19.590Z,18.90
2022-11-08T07:41:49.129Z,18.90
2022-11-08T07:44:17.175Z,18.90
2022-11-08T07:46:45.083Z,18.90
2022-11-08T07:49:14.350Z,19.00
2022-11-08T07:51:42.228Z,19.00
2022-11-08T07:54:10.124Z,19.00
2022-11-08T07:56:38.055Z,19.20
2022-11-08T07:59:05.964Z,19.10
2022-11-08T08:01:33.991Z,19.10
2022-11-08T08:04:01.916Z,19.10
2022-11-08T08:06:31.199Z,19.10
2022-11-08T08:08:59.052Z,19.10
2022-11-08T08:11:32.427Z,19.10
2022-11-08T08:14:01.514Z,19.20
2022-11-08T08:16:29.428Z,19.20
2022-11-08T08:18:57.320Z,19.20
2022-11-08T08:21:25.695Z,19.20
2022-11-08T08:23:54.907Z,19.20
2022-11-08T08:26:22.804Z,19.20
2022-11-08T08:28:50.687Z,19.20
2022-11-08T08:31:18.643Z,19.20
2022-11-08T08:33:46.537Z,19.20
2022-11-08T08:36:14.441Z,19.30
2022-11-08T08:38:44.782Z,19.20
2022-11-08T08:41:14.329Z,19.20
2022-11-08T08:43:42.257Z,19.20
2022-11-08T08:46:10.139Z,19.20
2022-11-08T08:48:38.802Z,19.20
2022-11-08T08:51:06.922Z,19.20
2022-11-08T08:53:34.865Z,19.20
2022-11-08T08:56:05.589Z,19.20
2022-11-08T08:58:35.126Z,19.20
2022-11-08T09:03:51.758Z,19.20
2022-11-08T09:06:20.015Z,19.20
2022-11-08T09:08:49.213Z,19.20
2022-11-08T09:11:17.348Z,19.10
2022-11-08T09:13:46.691Z,19.20
2022-11-08T09:16:15.107Z,19.20
2022-11-08T09:18:43.212Z,19.20
2022-11-08T09:21:11.180Z,19.10
2022-11-08T09:23:39.110Z,19.10
2022-11-08T09:26:07.354Z,19.20
2022-11-08T09:28:36.371Z,19.10
2022-11-08T09:31:07.888Z,19.20
2022-11-08T09:33:36.936Z,19.10
2022-11-08T09:36:06.341Z,19.20
2022-11-08T09:38:34.418Z,19.20
2022-11-08T09:41:24.764Z,19.20
2022-11-08T09:44:20.456Z,19.20
2022-11-08T09:46:51.713Z,19.20
2022-11-08T09:49:27.425Z,19.20
2022-11-08T09:51:55.642Z,19.20
2022-11-08T09:54:28.679Z,19.20
2022-11-08T09:56:56.648Z,19.20
2022-11-08T09:59:35.791Z,19.20
2022-11-08T10:02:16.877Z,19.20
2022-11-08T10:04:50.142Z,19.20
2022-11-08T10:07:30.117Z,19.20
2022-11-08T10:10:16.927Z,19.20
2022-11-08T10:12:51.136Z,19.20
2022-11-08T10:15:23.899Z,19.20
2022-11-08T10:18:05.199Z,19.20
2022-11-08T10:20:45.122Z,19.20
2022-11-08T10:23:22.515Z,19.20
2022-11-08T10:25:55.337Z,19.20
2022-11-08T10:28:27.260Z,19.20
2022-11-08T10:30:56.432Z,19.20
2022-11-08T10:33:30.275Z,19.20
2022-11-08T10:36:02.702Z,19.20
2022-11-08T10:38:36.916Z,19.20
2022-11-08T10:41:11.072Z,19.20
2022-11-08T10:43:43.204Z,19.20
2022-11-08T10:46:35.812Z,19.20
2022-11-08T10:49:12.839Z,19.20
2022-11-08T10:51:40.736Z,19.30
2022-11-08T10:54:08.699Z,19.30
2022-11-08T10:56:55.844Z,19.30
2022-11-08T10:59:31.816Z,19.30
2022-11-08T11:01:59.906Z,19.30
2022-11-08T11:04:31.503Z,19.30
2022-11-08T11:07:03.231Z,19.20
2022-11-08T11:09:31.273Z,19.10
2022-11-08T11:12:00.734Z,19.10
2022-11-08T11:14:28.617Z,19.20
2022-11-08T11:17:01.490Z,19.20
2022-11-08T11:19:31.352Z,19.30
2022-11-08T11:22:04.743Z,19.30
2022-11-08T11:24:32.963Z,19.30
2022-11-08T11:27:04.350Z,19.30
2022-11-08T11:29:33.835Z,19.40
2022-11-08T11:32:24.267Z,19.40
2022-11-08T11:34:57.212Z,19.40
2022-11-08T11:37:40.117Z,19.50
2022-11-08T11:40:17.172Z,19.40
2022-11-08T11:42:54.761Z,19.40
2022-11-08T11:45:29.943Z,19.40
2022-11-08T11:48:01.655Z,19.40
2022-11-08T11:50:34.901Z,19.40
2022-11-08T11:53:06.034Z,19.50
2022-11-08T11:55:50.134Z,19.50
2022-11-08T11:58:34.098Z,19.50
2022-11-08T12:01:14.458Z,19.50
2022-11-08T12:04:12.948Z,19.50
2022-11-08T12:06:50.323Z,19.60
2022-11-08T12:09:30.890Z,19.60
2022-11-08T12:12:11.874Z,19.70
2022-11-08T12:14:56.166Z,19.60
2022-11-08T12:17:53.643Z,19.60
2022-11-08T12:20:35.107Z,19.60
2022-11-08T12:23:30.637Z,19.60
2022-11-08T12:26:05.860Z,19.60
2022-11-08T12:28:49.103Z,19.50
2022-11-08T12:31:26.223Z,19.50
2022-11-08T12:34:22.145Z,19.50
2022-11-08T12:37:04.901Z,19.50
2022-11-08T12:39:39.251Z,19.50
2022-11-08T12:42:34.571Z,19.50
2022-11-08T12:45:22.804Z,19.40
2022-11-08T12:47:57.980Z,19.50
2022-11-08T12:50:32.419Z,19.50
2022-11-08T12:53:18.720Z,19.50
2022-11-08T12:55:49.399Z,19.40
2022-11-08T12:58:32.981Z,19.50
2022-11-08T13:01:06.818Z,19.50
2022-11-08T13:04:05.993Z,19.50
2022-11-08T13:06:42.974Z,19.40
2022-11-08T13:09:20.944Z,19.40
2022-11-08T13:11:57.582Z,19.50
2022-11-08T13:14:26.826Z,19.40
2022-11-08T13:17:19.966Z,19.40
2022-11-08T13:20:04.699Z,19.40
2022-11-08T13:22:47.706Z,19.40
2022-11-08T13:25:35.035Z,19.30
2022-11-08T13:28:34.869Z,19.30
2022-11-08T13:31:24.370Z,19.30
2022-11-08T13:34:18.087Z,19.30
2022-11-08T13:36:57.083Z,19.30
2022-11-08T13:39:54.001Z,19.30
2022-11-08T13:42:59.872Z,19.30
2022-11-08T13:45:32.501Z,19.30
2022-11-08T13:48:02.469Z,19.30
2022-11-08T13:50:51.360Z,19.30
2022-11-08T13:53:54.585Z,19.40
2022-11-08T13:56:47.746Z,19.30
2022-11-08T13:59:49.714Z,19.30
2022-11-08T14:02:43.379Z,19.30
2022-11-08T14:05:32.888Z,19.30
2022-11-08T14:08:29.234Z,19.30
2022-11-08T14:11:36.676Z,19.30
2022-11-08T14:14:15.641Z,19.20
2022-11-08T14:16:52.908Z,19.30
2022-11-08T14:19:25.257Z,19.30
2022-11-08T14:21:56.184Z,19.30
2022-11-08T14:24:28.283Z,19.20
2022-11-08T14:26:56.501Z,19.30
2022-11-08T14:29:26.212Z,19.30
2022-11-08T14:32:05.719Z,19.20
2022-11-08T14:34:36.960Z,19.20
2022-11-08T14:37:06.772Z,19.20
2022-11-08T14:39:37.310Z,19.20
2022-11-08T14:42:14.186Z,19.30
2022-11-08T14:44:45.339Z,19.20
2022-11-08T14:47:25.025Z,19.30
2022-11-08T14:49:54.301Z,19.30
2022-11-08T14:52:25.736Z,19.30
2022-11-08T14:55:02.547Z,19.30
2022-11-08T14:57:36.376Z,19.20
2022-11-08T15:00:16.955Z,19.30
2022-11-08T15:02:48.182Z,19.20
2022-11-08T15:05:31.561Z,19.20
2022-11-08T15:08:00.543Z,19.20
2022-11-08T15:10:29.254Z,19.30
2022-11-08T15:12:58.015Z,19.30
2022-11-08T15:15:29.201Z,19.30
2022-11-08T15:18:15.254Z,19.30
2022-11-08T15:20:55.447Z,19.30
2022-11-08T15:23:33.521Z,19.30
2022-11-08T15:26:01.794Z,19.20
2022-11-08T15:28:35.110Z,19.20
2022-11-08T15:31:05.193Z,19.20
2022-11-08T15:33:38.239Z,19.20
2022-11-08T15:36:14.989Z,19.20
2022-11-08T15:38:44.283Z,19.20
2022-11-08T15:41:33.749Z,19.20
2022-11-08T15:44:15.237Z,19.30
2022-11-08T15:46:43.384Z,19.30
2022-11-08T15:49:17.785Z,19.30
2022-11-08T15:51:47.395Z,19.30
2022-11-08T15:54:15.456Z,19.30
2022-11-08T15:56:43.985Z,19.30
2022-11-08T15:59:20.030Z,19.30
2022-11-08T16:01:55.240Z,19.30
2022-11-08T16:04:23.493Z,19.30
2022-11-08T16:06:52.928Z,19.30
2022-11-08T16:09:20.876Z,19.40
2022-11-08T16:11:49.457Z,19.40
2022-11-08T16:14:21.562Z,19.50
2022-11-08T16:16:49.748Z,19.50
2022-11-08T16:19:20.393Z,19.50
2022-11-08T16:21:48.934Z,19.50
2022-11-08T16:24:18.966Z,19.50
2022-11-08T16:26:47.781Z,19.50
2022-11-08T16:29:21.462Z,19.50
2022-11-08T16:31:50.266Z,19.40
2022-11-08T16:34:19.027Z,19.40
2022-11-08T16:36:48.663Z,19.40
2022-11-08T16:39:19.892Z,19.40
2022-11-08T16:41:48.012Z,19.40
2022-11-08T16:44:16.007Z,19.40
2022-11-08T16:46:44.016Z,19.40
2022-11-08T16:49:21.045Z,19.50
2022-11-08T16:51:49.596Z,19.40
2022-11-08T16:54:23.878Z,19.40
2022-11-08T16:57:03.374Z,19.40
2022-11-08T16:59:40.038Z,19.40
2022-11-08T17:02:20.379Z,19.40
2022-11-08T17:04:48.267Z,19.50
2022-11-08T17:07:16.240Z,19.50
2022-11-08T17:09:45.583Z,19.60
2022-11-08T17:12:13.529Z,19.60
2022-11-08T17:14:41.461Z,19.70
2022-11-08T17:17:10.426Z,19.70
2022-11-08T17:19:38.384Z,19.70
2022-11-08T17:22:06.379Z,19.70
2022-11-08T17:24:34.267Z,19.70
2022-11-08T17:27:03.496Z,19.70
2022-11-08T17:29:31.380Z,19.80
2022-11-08T17:31:59.265Z,19.70
2022-11-08T17:34:27.265Z,19.80
2022-11-08T17:36:55.183Z,19.80
2022-11-08T17:39:23.047Z,19.70
2022-11-08T17:41:50.922Z,19.70
2022-11-08T17:44:20.292Z,19.80
2022-11-08T17:46:50.058Z,19.80
2022-11-08T17:49:18.080Z,19.80
2022-11-08T17:51:46.171Z,19.80
2022-11-08T17:54:14.042Z,19.90
2022-11-08T17:56:41.933Z,19.90
2022-11-08T17:59:09.891Z,19.80
2022-11-08T18:01:39.479Z,19.80
2022-11-08T18:04:07.597Z,19.80
2022-11-08T18:06:35.532Z,19.70
2022-11-08T18:09:03.443Z,19.50
2022-11-08T18:11:31.363Z,19.50
2022-11-08T18:13:59.260Z,19.60
2022-11-08T18:16:27.209Z,19.70
2022-11-08T18:18:58.929Z,19.70
2022-11-08T18:21:26.840Z,19.70
2022-11-08T18:23:54.732Z,19.70
2022-11-08T18:26:22.595Z,19.80
2022-11-08T18:28:50.477Z,19.80
2022-11-08T18:31:20.153Z,19.80
2022-11-08T18:33:49.012Z,19.90
2022-11-08T18:36:21.055Z,19.90
2022-11-08T18:38:50.051Z,19.90
2022-11-08T18:41:19.699Z,20.00
2022-11-08T18:43:47.839Z,20.00
2022-11-08T18:46:18.036Z,20.00
2022-11-08T18:48:46.578Z,20.00
2022-11-08T18:51:16.118Z,20.00
2022-11-08T18:53:45.746Z,20.00
2022-11-08T18:56:14.370Z,20.00
2022-11-08T18:58:43.914Z,20.10
2022-11-08T19:01:12.477Z,20.10
2022-11-08T19:03:40.445Z,20.00
2022-11-08T19:06:08.557Z,20.00
2022-11-08T19:08:36.891Z,20.00
2022-11-08T19:11:08.822Z,20.00
2022-11-08T19:13:39.172Z,20.00
2022-11-08T19:16:10.034Z,20.00
2022-11-08T19:18:38.610Z,20.00
2022-11-08T19:21:08.438Z,20.00
2022-11-08T19:23:38.291Z,20.00
2022-11-08T19:26:15.346Z,20.00
2022-11-08T19:28:45.424Z,20.00
2022-11-08T19:31:14.223Z,20.00
2022-11-08T19:33:42.151Z,20.00
2022-11-08T19:36:14.117Z,20.00
2022-11-08T19:38:42.587Z,20.00
2022-11-08T19:41:13.832Z,20.00
2022-11-08T19:43:43.604Z,20.00
2022-11-08T19:46:14.013Z,20.00
2022-11-08T19:48:43.505Z,20.10
2022-11-08T19:51:14.964Z,20.10
2022-11-08T19:53:43.436Z,20.10
2022-11-08T19:56:15.590Z,20.10
2022-11-08T19:58:43.833Z,20.10
2022-11-08T20:01:13.023Z,20.00
2022-11-08T20:03:41.410Z,20.00
2022-11-08T20:06:09.951Z,20.00
2022-11-08T20:08:38.341Z,20.10
2022-11-08T20:11:13.306Z,20.10
2022-11-08T20:13:41.114Z,20.10
2022-11-08T20:16:10.774Z,20.10
2022-11-08T20:18:38.707Z,20.20
2022-11-08T20:21:06.937Z,20.20
2022-11-08T20:23:35.412Z,20.20
2022-11-08T20:26:04.505Z,20.20
2022-11-08T20:28:36.339Z,20.20
2022-11-08T20:31:11.862Z,20.20
2022-11-08T20:33:40.741Z,20.20
2022-11-08T20:36:10.784Z,20.20
2022-11-08T20:38:38.937Z,20.20
2022-11-08T20:41:08.603Z,20.30
2022-11-08T20:43:39.987Z,20.20
2022-11-08T20:46:09.884Z,20.20
2022-11-08T20:48:37.780Z,20.30
2022-11-08T20:51:07.754Z,20.20
2022-11-08T20:53:37.317Z,20.30
2022-11-08T20:56:07.272Z,20.20
2022-11-08T20:58:37.673Z,20.20
2022-11-08T21:01:07.835Z,20.30
2022-11-08T21:03:35.962Z,20.20
2022-11-08T21:06:06.605Z,20.20
2022-11-08T21:08:59.113Z,20.20
2022-11-08T21:11:23.332Z,20.20
2022-11-08T21:13:52.593Z,20.20
2022-11-08T21:16:29.785Z,20.20
2022-11-08T21:18:59.777Z,20.20
2022-11-08T21:21:28.175Z,20.20
2022-11-08T21:23:56.074Z,20.20
2022-11-08T21:26:24.729Z,20.20
2022-11-08T21:28:53.980Z,20.20
2022-11-08T21:31:21.988Z,20.20
2022-11-08T21:33:49.869Z,20.20
2022-11-08T21:36:18.340Z,20.20
2022-11-08T21:38:46.399Z,20.20
2022-11-08T21:41:14.496Z,20.20
2022-11-08T21:43:44.416Z,20.20
2022-11-08T21:46:19.449Z,20.20
2022-11-08T21:48:47.266Z,20.20
2022-11-08T21:51:16.196Z,20.20
2022-11-08T21:53:53.645Z,20.20
2022-11-08T21:56:22.934Z,20.30
2022-11-08T21:58:50.987Z,20.30
2022-11-08T22:01:24.125Z,20.30
2022-11-08T22:03:55.056Z,20.40
2022-11-08T22:06:23.003Z,20.40
2022-11-08T22:08:50.980Z,20.40
2022-11-08T22:11:19.185Z,20.40
2022-11-08T22:13:47.052Z,20.40
2022-11-08T22:16:15.100Z,20.40
2022-11-08T22:21:43.178Z,20.40
2022-11-08T22:24:13.059Z,20.40
2022-11-08T22:26:41.318Z,20.50
2022-11-08T22:29:09.242Z,20.40
2022-11-08T22:31:37.481Z,20.30
2022-11-08T22:34:08.201Z,20.30
2022-11-08T22:36:39.925Z,20.40
2022-11-08T22:39:13.583Z,20.30
2022-11-08T22:41:41.467Z,20.30
2022-11-08T22:44:12.209Z,20.20
2022-11-08T22:46:41.079Z,20.10
2022-11-08T22:49:10.724Z,20.10
2022-11-08T22:51:39.331Z,20.20
2022-11-08T22:54:07.266Z,20.20
2022-11-08T22:56:35.707Z,20.20
2022-11-08T22:59:03.996Z,20.10
2022-11-08T23:01:31.930Z,20.00
2022-11-08T23:03:59.794Z,20.00
2022-11-08T23:06:29.144Z,20.00
2022-11-08T23:08:57.240Z,20.10
2022-11-08T23:11:42.699Z,20.00
2022-11-08T23:14:32.296Z,20.00
2022-11-08T23:17:03.761Z,20.00
2022-11-08T23:19:49.131Z,20.10
2022-11-08T23:22:36.032Z,20.00
2022-11-08T23:25:04.065Z,20.00
2022-11-08T23:27:49.884Z,20.00
2022-11-08T23:30:37.321Z,20.00
2022-11-08T23:33:06.507Z,20.00
2022-11-08T23:35:34.561Z,20.00
2022-11-08T23:38:03.984Z,20.00
2022-11-08T23:40:49.233Z,20.10
2022-11-08T23:43:36.164Z,20.10
2022-11-08T23:46:08.334Z,20.00
2022-11-08T23:48:37.092Z,20.10
2022-11-08T23:51:06.074Z,20.10
2022-11-08T23:53:37.241Z,20.00
2022-11-08T23:56:06.234Z,20.00
2022-11-08T23:58:34.553Z,20.00
